Time;durP1;ratioP1;P1;durP2;ratioP2;P2;SDS_P1;SDS_P2;PMS_P1;PMS_P2;Temp;Humidity;BMP_temperature;BMP_pressure;BME280_temperature;BME280_humidity;BME280_pressure;Samples;Min_cycle;Max_cycle;Signal;HPM_P1;HPM_P2
2022/04/10 00:01:07;;;;;;;1.20;1.00;;;5.60;98.00;;;;;;5095968;28;21168;-67
2022/04/10 00:03:34;;;;;;;1.30;1.20;;;5.60;98.00;;;;;;5094615;28;20487;-67
2022/04/10 00:06:01;;;;;;;1.20;1.00;;;5.60;98.00;;;;;;5095628;28;20509;-67
2022/04/10 00:08:30;;;;;;;1.20;1.00;;;5.60;98.00;;;;;;5095748;28;20445;-67
2022/04/10 00:10:57;;;;;;;1.20;0.90;;;5.50;98.00;;;;;;5095471;28;20495;-67
2022/04/10 00:13:24;;;;;;;1.77;1.20;;;5.50;98.00;;;;;;5095675;28;20869;-67
2022/04/10 00:15:51;;;;;;;1.20;0.90;;;5.60;98.00;;;;;;5095504;28;20454;-67
2022/04/10 00:18:18;;;;;;;1.20;1.00;;;5.60;98.00;;;;;;5095448;28;20460;-67
2022/04/10 00:20:45;;;;;;;1.40;1.27;;;5.60;98.00;;;;;;5095513;28;20497;-67
2022/04/10 00:23:12;;;;;;;1.20;1.00;;;5.60;98.00;;;;;;5095100;28;21032;-67
2022/04/10 00:25:41;;;;;;;1.20;1.03;;;5.60;98.00;;;;;;5094690;28;20445;-67
2022/04/10 00:28:08;;;;;;;1.27;1.03;;;5.50;98.00;;;;;;5094578;28;21040;-67
2022/04/10 00:30:35;;;;;;;2.53;1.43;;;5.40;98.00;;;;;;5095297;28;20448;-68
2022/04/10 00:33:02;;;;;;;1.20;1.00;;;5.30;98.00;;;;;;5095379;28;20468;-67
2022/04/10 00:35:29;;;;;;;1.20;1.00;;;5.40;98.00;;;;;;5095459;28;20944;-67
2022/04/10 00:37:57;;;;;;;1.20;1.10;;;5.40;98.00;;;;;;5095326;28;20496;-67
2022/04/10 00:40:24;;;;;;;1.20;1.00;;;5.30;98.00;;;;;;5077275;28;20461;-67
2022/04/10 00:42:52;;;;;;;1.20;1.00;;;5.30;98.00;;;;;;5095290;28;20479;-67
2022/04/10 00:45:21;;;;;;;1.40;1.23;;;5.20;98.00;;;;;;5095625;28;20489;-67
2022/04/10 00:47:54;;;;;;;1.20;1.00;;;5.10;98.00;;;;;;5095149;28;20454;-67
2022/04/10 00:50:22;;;;;;;1.20;1.10;;;5.10;98.00;;;;;;5094785;28;20456;-67
2022/04/10 00:52:50;;;;;;;1.67;1.40;;;5.00;98.00;;;;;;5094847;28;20486;-67
2022/04/10 00:55:18;;;;;;;1.20;1.00;;;5.20;98.00;;;;;;5094705;28;20464;-67
2022/04/10 00:57:46;;;;;;;1.50;1.20;;;5.10;98.00;;;;;;5094778;28;20484;-67
2022/04/10 01:00:17;;;;;;;1.30;1.20;;;5.20;98.00;;;;;;5094759;28;20531;-68
2022/04/10 01:02:44;;;;;;;1.20;1.07;;;5.20;98.00;;;;;;5094709;28;20807;-67
2022/04/10 01:05:11;;;;;;;1.20;1.00;;;5.20;98.00;;;;;;5094624;28;20540;-67
2022/04/10 01:07:38;;;;;;;1.20;1.00;;;5.10;98.00;;;;;;5094212;28;20553;-67
2022/04/10 01:10:06;;;;;;;1.20;1.00;;;5.00;98.00;;;;;;5094477;28;20474;-67
2022/04/10 01:12:34;;;;;;;1.20;1.00;;;5.10;98.00;;;;;;5094400;28;20490;-68
2022/04/10 01:15:02;;;;;;;1.20;0.90;;;5.20;98.00;;;;;;5094524;28;20459;-67
2022/04/10 01:17:32;;;;;;;1.50;1.20;;;5.30;98.00;;;;;;5094220;28;20876;-67
2022/04/10 01:19:59;;;;;;;1.20;0.90;;;5.40;98.00;;;;;;5094407;28;20481;-67
2022/04/10 01:22:34;;;;;;;1.43;1.13;;;5.20;98.00;;;;;;5094298;28;20571;-67
2022/04/10 01:25:05;;;;;;;1.20;1.00;;;5.20;98.00;;;;;;5094211;28;20452;-67
2022/04/10 01:27:37;;;;;;;1.20;1.00;;;5.00;98.00;;;;;;5094723;28;20457;-68
2022/04/10 01:30:05;;;;;;;3.40;1.40;;;4.80;98.00;;;;;;5094267;28;20939;-67
2022/04/10 01:32:32;;;;;;;1.40;1.20;;;4.70;98.00;;;;;;5094434;28;20543;-67
2022/04/10 01:35:01;;;;;;;1.30;1.20;;;4.90;98.00;;;;;;5094153;28;20860;-67
2022/04/10 01:37:29;;;;;;;1.20;1.00;;;4.90;98.00;;;;;;5094274;28;20458;-67
2022/04/10 01:39:58;;;;;;;1.20;1.10;;;5.00;98.00;;;;;;5093233;28;20458;-67
2022/04/10 01:42:27;;;;;;;1.20;0.90;;;5.00;98.00;;;;;;5094090;28;20565;-67
2022/04/10 01:44:54;;;;;;;1.20;1.00;;;5.00;98.00;;;;;;5092746;28;20979;-67
2022/04/10 01:47:22;;;;;;;1.20;1.00;;;4.90;98.00;;;;;;5093991;28;20453;-67
2022/04/10 01:49:49;;;;;;;1.50;1.50;;;5.00;98.00;;;;;;5093682;28;20454;-67
2022/04/10 01:52:16;;;;;;;1.33;1.17;;;5.00;98.00;;;;;;5093798;28;20494;-67
2022/04/10 01:54:43;;;;;;;2.33;1.27;;;4.80;98.00;;;;;;5093607;28;21126;-67
2022/04/10 01:57:11;;;;;;;1.20;1.00;;;4.70;98.00;;;;;;5093787;28;20515;-67
2022/04/10 01:59:38;;;;;;;1.30;1.10;;;4.70;98.00;;;;;;5093563;28;20448;-67
2022/04/10 02:02:06;;;;;;;1.40;1.37;;;4.60;98.00;;;;;;5092359;28;20557;-67
2022/04/10 02:04:34;;;;;;;1.60;1.53;;;4.60;98.00;;;;;;5093661;28;20492;-67
2022/04/10 02:07:01;;;;;;;1.80;1.20;;;4.60;98.00;;;;;;5093434;28;20537;-67
2022/04/10 02:09:27;;;;;;;1.83;1.20;;;4.70;98.00;;;;;;5093452;28;20457;-67
2022/04/10 02:11:55;;;;;;;1.20;1.10;;;4.70;98.00;;;;;;5093435;28;20537;-67
2022/04/10 02:14:23;;;;;;;1.20;0.97;;;4.80;98.00;;;;;;5093427;28;20491;-67
2022/04/10 02:16:50;;;;;;;1.63;1.57;;;4.80;98.00;;;;;;5093095;28;20553;-67
2022/04/10 02:19:17;;;;;;;1.30;1.10;;;4.70;98.00;;;;;;5092931;28;20500;-68
2022/04/10 02:21:44;;;;;;;1.20;1.00;;;4.60;98.00;;;;;;5093134;28;20572;-67
2022/04/10 02:24:11;;;;;;;1.63;1.57;;;4.50;98.00;;;;;;5093436;28;20479;-67
2022/04/10 02:26:38;;;;;;;1.20;1.00;;;4.60;98.00;;;;;;5093215;28;20507;-67
2022/04/10 02:29:05;;;;;;;1.20;1.00;;;4.60;98.00;;;;;;5093287;28;21016;-67
2022/04/10 02:31:33;;;;;;;1.20;0.97;;;4.50;98.00;;;;;;5093379;28;20499;-67
2022/04/10 02:34:00;;;;;;;1.20;1.00;;;4.40;98.00;;;;;;5093024;28;20452;-68
2022/04/10 02:36:27;;;;;;;2.43;2.23;;;4.20;98.00;;;;;;5092925;28;20512;-67
2022/04/10 02:38:54;;;;;;;2.00;1.10;;;4.20;98.00;;;;;;5092965;28;20869;-67
2022/04/10 02:41:22;;;;;;;3.00;1.50;;;4.30;98.00;;;;;;5092710;28;20572;-68
2022/04/10 02:43:49;;;;;;;1.20;1.03;;;4.30;98.00;;;;;;5092848;28;20456;-67
2022/04/10 02:46:16;;;;;;;1.20;0.90;;;4.20;98.00;;;;;;5092809;28;20954;-67
2022/04/10 02:48:45;;;;;;;1.20;0.90;;;4.20;98.00;;;;;;5092361;28;20488;-67
2022/04/10 02:51:12;;;;;;;1.20;0.93;;;4.10;98.00;;;;;;5092701;28;20507;-68
2022/04/10 02:53:39;;;;;;;2.33;1.43;;;4.30;98.00;;;;;;5092485;28;20484;-67
2022/04/10 02:56:06;;;;;;;1.20;1.00;;;4.40;98.00;;;;;;5092535;28;20497;-67
2022/04/10 02:58:33;;;;;;;1.20;1.03;;;4.40;98.00;;;;;;5092362;28;20457;-67
2022/04/10 03:01:00;;;;;;;1.20;1.00;;;4.40;98.00;;;;;;5091206;28;20527;-68
2022/04/10 03:03:27;;;;;;;1.20;1.10;;;4.40;98.00;;;;;;5092466;28;20987;-67
2022/04/10 03:05:55;;;;;;;1.20;1.00;;;4.50;98.00;;;;;;5092365;28;20506;-67
2022/04/10 03:08:22;;;;;;;1.83;1.20;;;4.50;98.00;;;;;;5092408;28;20483;-67
2022/04/10 03:10:49;;;;;;;1.77;1.53;;;4.40;98.00;;;;;;5092421;28;20458;-67
2022/04/10 03:13:17;;;;;;;1.30;1.10;;;4.40;98.00;;;;;;5092249;28;20486;-67
2022/04/10 03:15:44;;;;;;;1.20;1.10;;;4.40;98.00;;;;;;5091091;28;20834;-67
2022/04/10 03:18:11;;;;;;;1.20;1.00;;;4.20;98.00;;;;;;5092126;28;20505;-67
2022/04/10 03:20:38;;;;;;;1.20;0.90;;;4.10;98.00;;;;;;5092443;28;21043;-67
2022/04/10 03:23:08;;;;;;;1.50;1.20;;;4.10;98.00;;;;;;5092098;28;20553;-67
2022/04/10 03:25:36;;;;;;;1.47;1.20;;;3.90;98.00;;;;;;5092130;28;20486;-68
2022/04/10 03:28:03;;;;;;;1.67;1.10;;;3.90;98.00;;;;;;5091952;28;20452;-67
2022/04/10 03:30:30;;;;;;;1.20;0.93;;;3.90;98.00;;;;;;5091443;28;20453;-67
2022/04/10 03:32:57;;;;;;;1.20;1.10;;;3.80;98.00;;;;;;5091630;28;20887;-67
2022/04/10 03:35:24;;;;;;;1.20;1.10;;;3.70;98.00;;;;;;5090687;28;20959;-67
2022/04/10 03:37:51;;;;;;;1.20;1.00;;;3.60;98.00;;;;;;5091843;28;20517;-67
2022/04/10 03:40:20;;;;;;;1.40;1.20;;;3.50;98.00;;;;;;5091892;28;20452;-67
2022/04/10 03:42:47;;;;;;;1.20;1.00;;;3.50;98.00;;;;;;5090447;28;20529;-67
2022/04/10 03:45:15;;;;;;;2.60;1.43;;;3.70;98.00;;;;;;5091862;28;20448;-67
2022/04/10 03:47:42;;;;;;;1.93;1.10;;;3.50;98.00;;;;;;5091857;28;20498;-67
2022/04/10 03:50:09;;;;;;;1.10;1.00;;;3.50;98.00;;;;;;5091802;28;20970;-67
2022/04/10 03:52:36;;;;;;;1.70;1.10;;;3.70;98.00;;;;;;5091835;28;20503;-68
2022/04/10 03:55:04;;;;;;;2.33;1.20;;;3.60;98.00;;;;;;5091687;28;20496;-67
2022/04/10 03:57:33;;;;;;;1.30;1.20;;;3.70;98.00;;;;;;5091986;28;20513;-67
2022/04/10 04:00:00;;;;;;;1.20;1.00;;;3.60;98.00;;;;;;5090533;28;20852;-67
2022/04/10 04:02:27;;;;;;;1.40;1.23;;;3.60;98.00;;;;;;5091767;28;20484;-68
2022/04/10 04:04:54;;;;;;;1.20;1.10;;;3.60;98.00;;;;;;5091850;28;21007;-67
2022/04/10 04:07:21;;;;;;;1.20;1.10;;;3.60;98.00;;;;;;5090600;28;20871;-67
2022/04/10 04:09:48;;;;;;;1.20;1.00;;;3.60;98.00;;;;;;5091851;28;20487;-67
2022/04/10 04:12:16;;;;;;;1.30;1.10;;;3.50;98.00;;;;;;5091998;28;20930;-67
2022/04/10 04:14:45;;;;;;;1.10;0.90;;;3.30;98.00;;;;;;5090315;28;20452;-67
2022/04/10 04:17:12;;;;;;;1.20;1.00;;;3.20;98.00;;;;;;5091272;28;20455;-67
2022/04/10 04:19:39;;;;;;;1.40;1.30;;;3.10;98.00;;;;;;5091456;28;20475;-67
2022/04/10 04:22:06;;;;;;;1.20;1.10;;;2.90;98.00;;;;;;5091008;28;20533;-67
2022/04/10 04:24:34;;;;;;;4.03;1.33;;;2.90;98.00;;;;;;5091372;28;20552;-67
2022/04/10 04:27:01;;;;;;;1.20;1.00;;;2.90;98.00;;;;;;5090281;28;20537;-67
2022/04/10 04:29:28;;;;;;;1.20;0.90;;;2.90;98.00;;;;;;5091485;28;20459;-67
2022/04/10 04:31:56;;;;;;;1.50;1.23;;;2.90;98.00;;;;;;5091149;28;20985;-68
2022/04/10 04:34:23;;;;;;;1.20;1.03;;;2.90;98.00;;;;;;5091350;28;20452;-67
2022/04/10 04:36:50;;;;;;;1.20;1.00;;;2.80;98.00;;;;;;5091362;28;20490;-67
2022/04/10 04:39:18;;;;;;;1.20;0.97;;;2.70;98.00;;;;;;5091435;28;20517;-67
2022/04/10 04:41:45;;;;;;;1.77;1.30;;;2.80;98.00;;;;;;5089975;28;20533;-67
2022/04/10 04:44:12;;;;;;;1.20;1.00;;;2.60;98.00;;;;;;5094847;28;20448;-67
2022/04/10 04:46:39;;;;;;;1.40;1.10;;;2.60;98.00;;;;;;5095062;28;20492;-67
2022/04/10 04:49:07;;;;;;;1.20;1.20;;;2.80;98.00;;;;;;5093764;28;20857;-67
2022/04/10 04:51:36;;;;;;;1.20;1.10;;;2.70;98.00;;;;;;5093827;28;20542;-67
2022/04/10 04:54:04;;;;;;;1.20;1.00;;;2.60;98.00;;;;;;5094852;28;20459;-67
2022/04/10 04:56:32;;;;;;;1.20;1.10;;;2.80;98.00;;;;;;5095047;28;20499;-67
2022/04/10 04:59:00;;;;;;;1.20;1.20;;;2.80;98.00;;;;;;5094955;28;20509;-67
2022/04/10 05:01:27;;;;;;;1.20;1.07;;;2.70;98.00;;;;;;5094983;28;21019;-67
2022/04/10 05:03:54;;;;;;;1.50;1.23;;;2.90;98.00;;;;;;5094862;28;20523;-67
2022/04/10 05:06:22;;;;;;;1.20;1.00;;;3.00;98.00;;;;;;5094613;28;21050;-67
2022/04/10 05:08:49;;;;;;;1.20;1.00;;;3.30;98.00;;;;;;5094662;28;20463;-67
2022/04/10 05:11:16;;;;;;;1.20;0.90;;;3.40;98.00;;;;;;5094704;28;20509;-67
2022/04/10 05:13:44;;;;;;;1.33;1.20;;;3.60;98.00;;;;;;5094707;28;20845;-67
2022/04/10 05:16:11;;;;;;;1.30;1.10;;;3.60;98.00;;;;;;5094434;28;20495;-67
2022/04/10 05:18:40;;;;;;;1.20;0.90;;;3.50;98.00;;;;;;5094674;28;20477;-67
2022/04/10 05:21:07;;;;;;;1.40;1.20;;;3.40;98.00;;;;;;5094353;28;20455;-67
2022/04/10 05:23:36;;;;;;;1.20;0.90;;;3.40;98.00;;;;;;5094418;28;20483;-67
2022/04/10 05:26:03;;;;;;;1.20;1.00;;;3.40;98.00;;;;;;5094069;28;20879;-67
2022/04/10 05:28:31;;;;;;;1.20;1.00;;;3.50;98.00;;;;;;5093631;28;20451;-67
2022/04/10 05:30:58;;;;;;;1.30;1.27;;;3.40;98.00;;;;;;5093633;28;20456;-67
2022/04/10 05:33:25;;;;;;;1.57;1.30;;;3.40;98.00;;;;;;5093956;28;20918;-68
2022/04/10 05:35:55;;;;;;;1.20;1.00;;;3.50;98.00;;;;;;5094415;28;20505;-68
2022/04/10 05:38:22;;;;;;;1.20;1.07;;;3.70;98.00;;;;;;5094154;28;20478;-67
2022/04/10 05:40:52;;;;;;;1.20;1.03;;;3.80;98.00;;;;;;5092856;28;20444;-67
2022/04/10 05:43:20;;;;;;;1.20;1.00;;;3.80;98.00;;;;;;5093753;28;21077;-67
2022/04/10 05:45:47;;;;;;;1.30;1.10;;;3.90;98.00;;;;;;5093892;28;20460;-67
2022/04/10 05:48:14;;;;;;;1.20;1.10;;;3.90;98.00;;;;;;5094007;28;20555;-67
2022/04/10 05:50:42;;;;;;;1.20;0.90;;;3.90;98.00;;;;;;5094016;28;20455;-67
2022/04/10 05:53:09;;;;;;;1.43;1.27;;;4.10;98.00;;;;;;5093885;28;20555;-67
2022/04/10 05:55:36;;;;;;;1.20;1.00;;;4.20;98.00;;;;;;5093125;28;20503;-67
2022/04/10 05:58:05;;;;;;;1.23;1.10;;;4.30;98.00;;;;;;5093105;28;20465;-67
2022/04/10 06:00:33;;;;;;;1.53;1.33;;;4.30;98.00;;;;;;5093359;28;20458;-67
2022/04/10 06:03:03;;;;;;;1.30;1.30;;;4.30;98.00;;;;;;5092399;28;20898;-67
2022/04/10 06:05:32;;;;;;;3.67;1.40;;;4.40;98.00;;;;;;5093466;28;20548;-67
2022/04/10 06:07:59;;;;;;;1.30;1.17;;;4.40;98.00;;;;;;5092132;28;20496;-67
2022/04/10 06:10:26;;;;;;;2.30;1.83;;;4.30;98.00;;;;;;5091865;28;20482;-67
2022/04/10 06:12:54;;;;;;;1.20;1.10;;;4.20;98.00;;;;;;5093228;28;20485;-67
2022/04/10 06:15:22;;;;;;;1.40;1.30;;;4.40;98.00;;;;;;5093496;28;20493;-67
2022/04/10 06:17:49;;;;;;;1.73;1.63;;;4.30;98.00;;;;;;5093129;28;20533;-67
2022/04/10 06:20:16;;;;;;;1.20;1.00;;;4.40;98.00;;;;;;5093281;28;20491;-67
2022/04/10 06:22:43;;;;;;;1.20;1.17;;;4.50;98.00;;;;;;5093193;28;20521;-67
2022/04/10 06:25:10;;;;;;;1.30;1.30;;;4.60;98.00;;;;;;5093302;28;20944;-67
2022/04/10 06:27:37;;;;;;;1.57;1.30;;;4.90;98.00;;;;;;5093264;28;20871;-67
2022/04/10 06:30:05;;;;;;;1.40;1.30;;;5.00;98.00;;;;;;5093170;28;20494;-67
2022/04/10 06:32:34;;;;;;;2.40;1.30;;;5.20;98.00;;;;;;5093186;28;20459;-67
2022/04/10 06:35:01;;;;;;;1.20;1.00;;;5.30;98.00;;;;;;5093018;28;20796;-67
2022/04/10 06:37:28;;;;;;;1.20;1.00;;;5.40;98.00;;;;;;5092559;28;20878;-67
2022/04/10 06:39:55;;;;;;;1.30;1.10;;;5.50;98.00;;;;;;5093134;28;20837;-67
2022/04/10 06:42:23;;;;;;;1.20;1.00;;;5.90;98.00;;;;;;5092851;28;20456;-67
2022/04/10 06:44:50;;;;;;;1.30;1.10;;;6.00;98.00;;;;;;5092984;28;20457;-67
2022/04/10 06:47:17;;;;;;;1.20;1.10;;;6.20;98.00;;;;;;5092809;28;20454;-67
2022/04/10 06:49:46;;;;;;;1.20;1.00;;;6.30;98.00;;;;;;5093034;28;20452;-67
2022/04/10 06:52:13;;;;;;;1.83;1.20;;;6.50;98.00;;;;;;5092868;28;20460;-67
2022/04/10 06:54:40;;;;;;;1.20;1.00;;;6.50;98.00;;;;;;5092609;28;20454;-67
2022/04/10 06:57:07;;;;;;;1.53;1.20;;;6.50;98.00;;;;;;5092706;28;20547;-67
2022/04/10 06:59:34;;;;;;;1.20;1.10;;;6.70;98.00;;;;;;5092583;28;20527;-67
2022/04/10 07:02:01;;;;;;;1.20;1.10;;;6.80;98.00;;;;;;5091257;28;20883;-67
2022/04/10 07:04:28;;;;;;;1.20;1.10;;;6.90;98.00;;;;;;5092286;28;20604;-67
2022/04/10 07:06:57;;;;;;;2.90;1.23;;;6.70;98.00;;;;;;5092415;28;20496;-67
2022/04/10 07:09:28;;;;;;;2.07;1.50;;;6.80;98.00;;;;;;5092151;28;20556;-67
2022/04/10 07:11:55;;;;;;;1.67;1.40;;;6.80;98.00;;;;;;5092547;28;20516;-67
2022/04/10 07:14:22;;;;;;;1.40;1.10;;;6.60;98.00;;;;;;5092382;28;20494;-67
2022/04/10 07:16:49;;;;;;;2.37;1.50;;;6.70;98.00;;;;;;5092010;28;21231;-67
2022/04/10 07:19:16;;;;;;;1.40;1.10;;;6.90;98.00;;;;;;5092116;28;20512;-66
2022/04/10 07:24:29;;;;;;;1.30;1.10;;;7.10;98.00;;;;;;5091660;28;20527;-68
2022/04/10 07:26:56;;;;;;;1.20;1.17;;;6.90;98.00;;;;;;5092234;28;20445;-67
2022/04/10 07:29:23;;;;;;;1.30;1.27;;;6.80;98.00;;;;;;5092178;28;20461;-66
2022/04/10 07:31:52;;;;;;;1.40;1.20;;;7.00;98.00;;;;;;5091902;28;20455;-67
2022/04/10 07:34:19;;;;;;;1.20;1.20;;;7.20;98.00;;;;;;5092026;28;20670;-66
2022/04/10 07:36:46;;;;;;;1.40;1.20;;;7.20;98.00;;;;;;5092058;28;20515;-67
2022/04/10 07:39:13;;;;;;;1.20;0.93;;;7.30;98.00;;;;;;5091895;28;20512;-67
2022/04/10 07:41:42;;;;;;;1.47;1.37;;;7.40;98.00;;;;;;5092147;28;20455;-67
2022/04/10 07:44:09;;;;;;;1.50;1.20;;;7.50;98.00;;;;;;5092014;28;20497;-67
2022/04/10 07:49:21;;;;;;;1.50;1.10;;;7.40;98.00;;;;;;5092098;28;20438;-66
2022/04/10 07:51:48;;;;;;;1.83;1.70;;;7.40;98.00;;;;;;5091646;28;20867;-67
2022/04/10 07:54:15;;;;;;;3.30;1.40;;;7.50;98.00;;;;;;5091724;28;20484;-67
2022/04/10 07:56:43;;;;;;;1.20;1.00;;;7.50;98.00;;;;;;5091830;28;20459;-67
2022/04/10 07:59:10;;;;;;;2.70;1.53;;;7.50;98.00;;;;;;5091737;28;20580;-68
2022/04/10 08:01:37;;;;;;;1.47;1.00;;;7.60;98.00;;;;;;5091741;28;20454;-68
2022/04/10 08:04:05;;;;;;;2.07;1.30;;;7.70;98.00;;;;;;5090499;28;20492;-68
2022/04/10 08:06:32;;;;;;;1.93;1.83;;;7.80;98.00;;;;;;5091609;28;20490;-67
2022/04/10 08:08:59;;;;;;;1.20;1.00;;;7.90;98.00;;;;;;5091500;28;20531;-68
2022/04/10 08:11:26;;;;;;;1.40;1.40;;;7.90;98.00;;;;;;5087932;28;20511;-69
2022/04/10 08:13:54;;;;;;;2.23;1.70;;;7.80;98.00;;;;;;5088695;28;21031;-68
2022/04/10 08:16:22;;;;;;;1.63;1.50;;;7.90;98.00;;;;;;5089001;28;20522;-69
2022/04/10 08:18:49;;;;;;;1.73;1.47;;;7.90;98.00;;;;;;5092520;28;20843;-70
2022/04/10 08:21:16;;;;;;;3.50;1.40;;;7.90;98.00;;;;;;5093458;28;20488;-69
2022/04/10 08:23:43;;;;;;;1.20;1.00;;;8.00;98.00;;;;;;5092635;28;20516;-68
2022/04/10 08:26:10;;;;;;;1.67;1.20;;;8.10;98.00;;;;;;5093283;28;20488;-69
2022/04/10 08:28:37;;;;;;;1.20;1.00;;;8.00;98.00;;;;;;5092674;28;20469;-69
2022/04/10 08:31:05;;;;;;;1.50;1.20;;;8.10;98.00;;;;;;5093043;28;20447;-69
2022/04/10 08:33:33;;;;;;;1.20;1.10;;;8.20;98.00;;;;;;5092896;28;20543;-69
2022/04/10 08:36:04;;;;;;;1.20;1.00;;;8.30;98.00;;;;;;5092356;28;20455;-69
2022/04/10 08:38:31;;;;;;;1.60;1.20;;;8.40;98.00;;;;;;5084254;28;20466;-69
2022/04/10 08:41:00;;;;;;;1.43;1.23;;;8.50;98.00;;;;;;5092658;28;20476;-70
2022/04/10 08:43:28;;;;;;;1.20;1.00;;;8.40;98.00;;;;;;5091928;28;20486;-69
2022/04/10 08:45:57;;;;;;;1.40;1.40;;;8.50;98.00;;;;;;5092230;28;20516;-69
2022/04/10 08:48:27;;;;;;;1.20;1.10;;;8.50;97.90;;;;;;5092194;28;20448;-69
2022/04/10 08:50:55;;;;;;;1.20;1.17;;;8.50;98.00;;;;;;5090240;28;20456;-69
2022/04/10 08:53:24;;;;;;;1.77;1.10;;;8.70;98.00;;;;;;5092174;28;20941;-68
2022/04/10 08:55:51;;;;;;;2.13;1.20;;;8.90;98.00;;;;;;5092330;28;20478;-68
2022/04/10 08:58:20;;;;;;;5.23;1.60;;;8.90;98.00;;;;;;5092008;28;20521;-67
2022/04/10 09:00:47;;;;;;;1.40;1.00;;;9.10;97.70;;;;;;5092256;28;20534;-67
2022/04/10 09:03:14;;;;;;;1.30;1.20;;;9.00;96.70;;;;;;5091437;28;20484;-67
2022/04/10 09:05:45;;;;;;;1.57;1.30;;;8.90;96.90;;;;;;5091944;28;20505;-67
2022/04/10 09:08:13;;;;;;;6.03;2.40;;;8.70;97.10;;;;;;5092077;28;20915;-68
2022/04/10 09:11:00;;;;;;;1.40;1.30;;;8.80;98.00;;;;;;5091785;28;20500;-68
2022/04/10 09:13:37;;;;;;;1.30;1.10;;;8.90;97.90;;;;;;5087015;28;20513;-67
2022/04/10 09:16:13;;;;;;;2.93;2.17;;;9.00;98.00;;;;;;5090426;28;20460;-67
2022/04/10 09:18:52;;;;;;;1.20;1.07;;;9.00;97.30;;;;;;5091662;28;20455;-67
2022/04/10 09:21:22;;;;;;;1.40;1.10;;;9.00;98.00;;;;;;5091942;28;20490;-67
2022/04/10 09:23:58;;;;;;;4.33;2.03;;;9.10;97.50;;;;;;5091674;28;20528;-67
2022/04/10 09:26:25;;;;;;;1.70;1.20;;;9.20;97.10;;;;;;5091539;28;20535;-67
2022/04/10 09:28:53;;;;;;;2.03;1.50;;;9.20;95.30;;;;;;5090283;28;20956;-67
2022/04/10 09:31:28;;;;;;;1.20;1.10;;;9.50;97.50;;;;;;5092002;28;20471;-67
2022/04/10 09:33:56;;;;;;;1.40;1.20;;;9.60;94.40;;;;;;5092089;28;20484;-67
2022/04/10 09:36:36;;;;;;;1.20;1.13;;;9.50;96.00;;;;;;5091514;28;20456;-68
2022/04/10 09:39:06;;;;;;;1.27;1.13;;;9.60;94.40;;;;;;5083413;28;20463;-69
2022/04/10 09:41:33;;;;;;;1.23;1.13;;;9.90;95.00;;;;;;5091142;28;20498;-70
2022/04/10 09:44:01;;;;;;;2.30;1.90;;;10.00;94.00;;;;;;5091154;28;20514;-70
2022/04/10 09:46:31;;;;;;;1.20;1.00;;;10.10;94.00;;;;;;5090365;28;20537;-69
2022/04/10 09:49:04;;;;;;;1.20;1.10;;;10.00;92.70;;;;;;5090518;28;20448;-69
2022/04/10 09:51:32;;;;;;;1.67;1.40;;;10.00;93.60;;;;;;5089095;28;20466;-69
2022/04/10 09:54:05;;;;;;;1.20;1.00;;;10.00;91.90;;;;;;5091170;28;20511;-69
2022/04/10 09:56:33;;;;;;;1.30;1.10;;;9.90;92.20;;;;;;5090444;28;20935;-68
2022/04/10 09:59:02;;;;;;;1.20;1.03;;;9.90;93.40;;;;;;5090978;28;20497;-68
2022/04/10 10:01:29;;;;;;;2.57;1.17;;;10.10;94.10;;;;;;5090983;28;20474;-68
2022/04/10 10:03:58;;;;;;;2.27;1.47;;;10.20;94.00;;;;;;5090639;28;20587;-68
2022/04/10 10:06:26;;;;;;;2.23;1.63;;;10.20;90.80;;;;;;5090376;28;20459;-69
2022/04/10 10:08:54;;;;;;;1.20;1.10;;;10.20;92.10;;;;;;5090303;28;20462;-68
2022/04/10 10:11:22;;;;;;;1.43;1.20;;;10.30;93.30;;;;;;5089553;28;20453;-69
2022/04/10 10:13:51;;;;;;;1.33;1.27;;;10.30;89.20;;;;;;5090690;28;20475;-68
2022/04/10 10:16:19;;;;;;;1.50;1.23;;;10.20;89.40;;;;;;5090458;28;20459;-68
2022/04/10 10:18:47;;;;;;;1.20;1.10;;;10.00;89.10;;;;;;5090550;28;20450;-68
2022/04/10 10:21:16;;;;;;;1.50;1.13;;;10.00;88.20;;;;;;5090694;28;20902;-68
2022/04/10 10:23:49;;;;;;;1.20;1.00;;;10.00;89.70;;;;;;5090381;28;20530;-68
2022/04/10 10:26:43;;;;;;;1.20;1.00;;;9.90;90.20;;;;;;5090290;28;20579;-68
2022/04/10 10:29:27;;;;;;;3.07;1.57;;;9.90;89.70;;;;;;5085235;28;20495;-68
2022/04/10 10:32:04;;;;;;;2.10;1.70;;;10.10;90.50;;;;;;5090301;28;20506;-70
2022/04/10 10:34:32;;;;;;;1.50;1.40;;;10.40;90.40;;;;;;5091237;28;20477;-69
2022/04/10 10:37:02;;;;;;;1.93;1.40;;;10.40;90.10;;;;;;5090248;28;20461;-71
2022/04/10 10:39:30;;;;;;;2.70;1.60;;;10.60;91.30;;;;;;5090289;28;20462;-69
2022/04/10 10:42:11;;;;;;;1.80;1.40;;;10.50;90.00;;;;;;5088484;28;20947;-68
2022/04/10 10:44:47;;;;;;;1.50;1.30;;;10.40;89.60;;;;;;5090050;28;20492;-68
2022/04/10 10:47:23;;;;;;;1.77;1.13;;;10.30;89.80;;;;;;5090494;28;20486;-68
2022/04/10 10:49:51;;;;;;;1.30;1.30;;;10.10;90.10;;;;;;5088152;28;20579;-68
2022/04/10 10:52:19;;;;;;;1.53;1.43;;;9.80;89.80;;;;;;5090201;28;20864;-68
2022/04/10 10:54:52;;;;;;;4.70;1.37;;;9.60;91.30;;;;;;5089630;28;20888;-68
2022/04/10 10:57:35;;;;;;;1.50;1.23;;;9.40;95.50;;;;;;5090518;28;20489;-68
2022/04/10 11:00:16;;;;;;;1.20;1.10;;;9.30;98.00;;;;;;5089002;28;20461;-68
2022/04/10 11:02:50;;;;;;;1.40;1.30;;;9.20;98.00;;;;;;5090253;28;20458;-68
2022/04/10 11:05:33;;;;;;;1.70;1.60;;;9.00;98.00;;;;;;5088998;28;21010;-68
2022/04/10 11:08:03;;;;;;;1.20;1.20;;;8.90;98.00;;;;;;5081684;28;20459;-68
2022/04/10 11:10:31;;;;;;;1.50;1.30;;;8.60;98.00;;;;;;5090120;28;20462;-68
2022/04/10 11:13:03;;;;;;;1.20;1.00;;;8.10;98.00;;;;;;5088514;28;20545;-69
2022/04/10 11:15:47;;;;;;;1.30;1.27;;;7.90;98.00;;;;;;5090003;28;20530;-68
2022/04/10 11:18:41;;;;;;;1.20;1.00;;;8.00;98.00;;;;;;5089703;28;20461;-68
2022/04/10 11:21:16;;;;;;;1.20;1.00;;;8.40;98.00;;;;;;5077307;28;20456;-68
2022/04/10 11:23:45;;;;;;;1.40;1.20;;;8.90;98.00;;;;;;5089250;28;20957;-68
2022/04/10 11:26:14;;;;;;;1.20;1.00;;;9.50;98.00;;;;;;5089564;28;20485;-68
2022/04/10 11:28:56;;;;;;;2.17;1.27;;;10.10;98.00;;;;;;5089516;28;20552;-68
2022/04/10 11:31:46;;;;;;;1.20;1.03;;;10.80;96.20;;;;;;5088717;28;20492;-68
2022/04/10 11:34:14;;;;;;;1.50;1.30;;;11.30;93.70;;;;;;5089693;28;20586;-67
2022/04/10 11:36:55;;;;;;;2.23;1.30;;;11.80;91.20;;;;;;5089338;28;20456;-68
2022/04/10 11:39:27;;;;;;;2.20;1.77;;;12.30;91.10;;;;;;5089059;28;20977;-67
2022/04/10 11:41:58;;;;;;;1.20;1.07;;;12.80;92.00;;;;;;5089495;28;20457;-67
2022/04/10 11:44:26;;;;;;;1.50;1.07;;;13.10;89.30;;;;;;5088771;28;20484;-67
2022/04/10 11:46:54;;;;;;;1.80;1.30;;;13.20;89.60;;;;;;5088783;28;20552;-67
2022/04/10 11:49:25;;;;;;;1.50;1.27;;;13.50;87.80;;;;;;5086836;28;20490;-67
2022/04/10 11:51:53;;;;;;;1.20;1.20;;;13.70;84.30;;;;;;5088624;28;20846;-67
2022/04/10 11:54:28;;;;;;;1.30;1.20;;;13.40;85.80;;;;;;5089004;28;20461;-67
2022/04/10 11:56:58;;;;;;;2.00;1.30;;;13.00;87.40;;;;;;5088454;28;20454;-68
2022/04/10 11:59:25;;;;;;;1.40;1.30;;;12.50;90.00;;;;;;5088555;28;20485;-67
2022/04/10 12:01:54;;;;;;;1.40;1.20;;;12.90;89.90;;;;;;5089141;28;20480;-68
2022/04/10 12:04:22;;;;;;;1.40;1.30;;;13.00;81.90;;;;;;5088893;28;20480;-67
2022/04/10 12:06:49;;;;;;;2.07;1.63;;;13.10;86.60;;;;;;5088855;28;20517;-67
2022/04/10 12:09:16;;;;;;;1.90;1.63;;;12.80;83.40;;;;;;5088979;28;20471;-67
2022/04/10 12:11:44;;;;;;;2.37;1.67;;;12.10;84.50;;;;;;5088471;28;20449;-68
2022/04/10 12:14:18;;;;;;;2.00;1.67;;;11.80;85.70;;;;;;5088954;28;20457;-67
2022/04/10 12:16:45;;;;;;;1.60;1.30;;;11.70;87.30;;;;;;5088989;28;20466;-68
2022/04/10 12:19:14;;;;;;;1.60;1.40;;;11.60;87.40;;;;;;5088954;28;20542;-68
2022/04/10 12:21:49;;;;;;;1.47;1.30;;;11.80;87.50;;;;;;5088924;28;20486;-68
2022/04/10 12:24:21;;;;;;;1.80;1.50;;;12.00;86.90;;;;;;5088940;28;20515;-69
2022/04/10 12:26:51;;;;;;;1.97;1.40;;;12.20;85.60;;;;;;5087569;28;20520;-67
2022/04/10 12:29:18;;;;;;;1.87;1.73;;;12.00;85.00;;;;;;5090510;28;20495;-68
2022/04/10 12:31:46;;;;;;;2.17;1.73;;;11.80;88.00;;;;;;5090837;28;20589;-67
2022/04/10 12:34:15;;;;;;;1.30;1.20;;;11.90;86.80;;;;;;5091335;28;20482;-68
2022/04/10 12:36:48;;;;;;;1.90;1.70;;;12.60;87.20;;;;;;5091116;28;20487;-67
2022/04/10 12:39:27;;;;;;;2.40;1.73;;;13.20;81.80;;;;;;5091478;28;20512;-67
2022/04/10 12:42:01;;;;;;;1.77;1.43;;;13.20;83.60;;;;;;5091384;28;20946;-67
2022/04/10 12:44:29;;;;;;;1.60;1.43;;;13.40;87.50;;;;;;5091143;28;20578;-67
2022/04/10 12:46:57;;;;;;;1.80;1.63;;;12.90;88.60;;;;;;5091259;28;20535;-67
2022/04/10 12:49:25;;;;;;;2.60;1.43;;;12.40;92.50;;;;;;5091468;28;20543;-67
2022/04/10 12:51:55;;;;;;;3.27;1.50;;;11.70;94.30;;;;;;5091309;28;20448;-67
2022/04/10 12:54:39;;;;;;;2.10;1.73;;;11.10;92.90;;;;;;5091294;28;20444;-67
2022/04/10 12:57:08;;;;;;;1.20;1.00;;;10.80;94.70;;;;;;5091248;28;20500;-67
2022/04/10 12:59:37;;;;;;;2.43;1.40;;;10.80;94.40;;;;;;5091152;28;20454;-67
2022/04/10 13:02:08;;;;;;;1.30;1.20;;;10.60;93.90;;;;;;5091346;28;20514;-67
2022/04/10 13:04:39;;;;;;;1.43;1.23;;;10.50;94.50;;;;;;5093978;28;20484;-67
2022/04/10 13:07:17;;;;;;;2.03;1.40;;;10.40;94.50;;;;;;5093542;28;21056;-67
2022/04/10 13:09:44;;;;;;;1.60;1.30;;;10.30;94.50;;;;;;5105721;28;20547;-67